sensor_id;sensor_type;location;lat;lon;timestamp;pressure;altitude;pressure_sealevel;temperature;humidity
72428;BME280;60419;48.880;18.036;2024-01-30T00:02:38;101156.19;;;-0.52;73.52
72428;BME280;60419;48.880;18.036;2024-01-30T00:05:24;101184.47;;;-0.44;74.10
72428;BME280;60419;48.880;18.036;2024-01-30T00:08:09;101189.59;;;-0.81;76.49
72428;BME280;60419;48.880;18.036;2024-01-30T00:10:55;101166.59;;;-0.65;77.00
72428;BME280;60419;48.880;18.036;2024-01-30T00:13:40;101183.28;;;-0.80;76.99
72428;BME280;60419;48.880;18.036;2024-01-30T00:16:26;101183.09;;;-1.24;79.47
72428;BME280;60419;48.880;18.036;2024-01-30T00:19:12;101188.78;;;-1.27;79.85
72428;BME280;60419;48.880;18.036;2024-01-30T00:21:57;101182.56;;;-1.42;80.25
72428;BME280;60419;48.880;18.036;2024-01-30T00:24:43;101155.22;;;-1.43;80.17
72428;BME280;60419;48.880;18.036;2024-01-30T00:27:28;101177.50;;;-1.60;80.35
72428;BME280;60419;48.880;18.036;2024-01-30T00:30:14;101180.31;;;-1.93;82.35
72428;BME280;60419;48.880;18.036;2024-01-30T00:32:59;101195.44;;;-1.71;82.47
72428;BME280;60419;48.880;18.036;2024-01-30T00:35:45;101196.41;;;-1.63;83.09
72428;BME280;60419;48.880;18.036;2024-01-30T00:38:30;101181.47;;;-1.56;82.18
72428;BME280;60419;48.880;18.036;2024-01-30T00:41:18;101188.63;;;-1.03;81.08
72428;BME280;60419;48.880;18.036;2024-01-30T00:44:04;101193.81;;;-1.09;81.54
72428;BME280;60419;48.880;18.036;2024-01-30T00:46:49;101187.84;;;-1.11;81.31
72428;BME280;60419;48.880;18.036;2024-01-30T00:49:35;101196.78;;;-0.66;79.36
72428;BME280;60419;48.880;18.036;2024-01-30T00:52:21;101187.66;;;-0.49;77.93
72428;BME280;60419;48.880;18.036;2024-01-30T00:55:06;101167.94;;;-0.69;77.72
72428;BME280;60419;48.880;18.036;2024-01-30T00:57:52;101178.91;;;-0.20;75.62
72428;BME280;60419;48.880;18.036;2024-01-30T01:00:37;101195.06;;;-0.21;75.28
72428;BME280;60419;48.880;18.036;2024-01-30T01:03:22;101188.09;;;-0.07;73.97
72428;BME280;60419;48.880;18.036;2024-01-30T01:06:08;101168.44;;;-0.51;74.15
72428;BME280;60419;48.880;18.036;2024-01-30T01:08:53;101196.28;;;-0.47;74.09
72428;BME280;60419;48.880;18.036;2024-01-30T01:11:39;101189.75;;;-0.59;73.14
72428;BME280;60419;48.880;18.036;2024-01-30T01:14:24;101186.72;;;-0.56;73.16
72428;BME280;60419;48.880;18.036;2024-01-30T01:17:11;101189.44;;;-0.41;72.35
72428;BME280;60419;48.880;18.036;2024-01-30T01:19:57;101188.25;;;-0.76;72.04
72428;BME280;60419;48.880;18.036;2024-01-30T01:22:42;101188.44;;;-0.78;73.09
72428;BME280;60419;48.880;18.036;2024-01-30T01:25:27;101189.63;;;-1.04;73.37
72428;BME280;60419;48.880;18.036;2024-01-30T01:28:13;101158.59;;;-1.03;72.91
72428;BME280;60419;48.880;18.036;2024-01-30T01:30:59;101187.19;;;-0.90;73.47
72428;BME280;60419;48.880;18.036;2024-01-30T01:33:50;101189.66;;;-0.66;73.11
72428;BME280;60419;48.880;18.036;2024-01-30T01:36:35;101190.56;;;-0.59;72.15
72428;BME280;60419;48.880;18.036;2024-01-30T01:39:22;101179.22;;;-0.67;72.55
72428;BME280;60419;48.880;18.036;2024-01-30T01:42:08;101190.88;;;-0.53;71.83
72428;BME280;60419;48.880;18.036;2024-01-30T01:44:54;101190.25;;;-0.79;73.17
72428;BME280;60419;48.880;18.036;2024-01-30T01:47:39;101193.59;;;-0.62;72.54
72428;BME280;60419;48.880;18.036;2024-01-30T01:50:25;101194.66;;;-0.48;72.06
72428;BME280;60419;48.880;18.036;2024-01-30T01:53:12;101183.47;;;-0.58;72.12
72428;BME280;60419;48.880;18.036;2024-01-30T01:55:57;101192.78;;;-1.62;75.54
72428;BME280;60419;48.880;18.036;2024-01-30T01:58:44;101169.66;;;-2.24;79.75
72428;BME280;60419;48.880;18.036;2024-01-30T02:01:32;101180.66;;;-1.96;77.83
72428;BME280;60419;48.880;18.036;2024-01-30T02:04:18;101186.59;;;-2.66;82.65
72428;BME280;60419;48.880;18.036;2024-01-30T02:07:03;101174.00;;;-1.92;81.95
72428;BME280;60419;48.880;18.036;2024-01-30T02:09:48;101169.13;;;-1.41;79.21
72428;BME280;60419;48.880;18.036;2024-01-30T02:12:34;101172.69;;;-1.26;79.72
72428;BME280;60419;48.880;18.036;2024-01-30T02:15:19;101174.41;;;-1.64;79.80
72428;BME280;60419;48.880;18.036;2024-01-30T02:18:05;101172.56;;;-1.09;78.57
72428;BME280;60419;48.880;18.036;2024-01-30T02:20:53;101175.88;;;-0.84;75.62
72428;BME280;60419;48.880;18.036;2024-01-30T02:23:39;101176.91;;;-0.70;74.44
72428;BME280;60419;48.880;18.036;2024-01-30T02:26:26;101178.28;;;-0.74;73.35
72428;BME280;60419;48.880;18.036;2024-01-30T02:29:11;101180.00;;;-1.28;75.37
72428;BME280;60419;48.880;18.036;2024-01-30T02:31:56;101168.38;;;-1.04;74.87
72428;BME280;60419;48.880;18.036;2024-01-30T02:34:42;101169.88;;;-1.01;74.68
72428;BME280;60419;48.880;18.036;2024-01-30T02:37:28;101154.19;;;-1.65;75.94
72428;BME280;60419;48.880;18.036;2024-01-30T02:40:13;101156.19;;;-1.36;74.98
72428;BME280;60419;48.880;18.036;2024-01-30T02:42:59;101152.72;;;-1.36;73.73
72428;BME280;60419;48.880;18.036;2024-01-30T02:45:45;101153.41;;;-0.96;72.59
72428;BME280;60419;48.880;18.036;2024-01-30T02:48:30;101173.31;;;-0.77;71.68
72428;BME280;60419;48.880;18.036;2024-01-30T02:51:16;101161.53;;;-0.75;71.86
72428;BME280;60419;48.880;18.036;2024-01-30T02:54:02;101171.78;;;-0.72;71.32
72428;BME280;60419;48.880;18.036;2024-01-30T02:56:47;101153.94;;;-0.78;71.75
72428;BME280;60419;48.880;18.036;2024-01-30T02:59:33;101176.31;;;-0.58;72.14
72428;BME280;60419;48.880;18.036;2024-01-30T03:02:20;101164.50;;;-0.55;71.31
72428;BME280;60419;48.880;18.036;2024-01-30T03:05:07;101164.09;;;-1.05;73.47
72428;BME280;60419;48.880;18.036;2024-01-30T03:07:52;101168.31;;;-0.95;72.75
72428;BME280;60419;48.880;18.036;2024-01-30T03:10:38;101165.84;;;-1.43;75.22
72428;BME280;60419;48.880;18.036;2024-01-30T03:13:23;101164.31;;;-0.91;73.84
72428;BME280;60419;48.880;18.036;2024-01-30T03:16:10;101156.88;;;-0.73;72.64
72428;BME280;60419;48.880;18.036;2024-01-30T03:18:55;101168.44;;;-0.89;72.83
72428;BME280;60419;48.880;18.036;2024-01-30T03:21:41;101166.22;;;-1.00;73.92
72428;BME280;60419;48.880;18.036;2024-01-30T03:24:26;101071.22;;;-1.19;74.08
72428;BME280;60419;48.880;18.036;2024-01-30T03:27:11;101152.91;;;-0.39;73.81
72428;BME280;60419;48.880;18.036;2024-01-30T03:29:57;101156.22;;;-0.37;73.98
72428;BME280;60419;48.880;18.036;2024-01-30T03:32:42;101153.31;;;-0.65;74.78
72428;BME280;60419;48.880;18.036;2024-01-30T03:35:27;101160.22;;;-0.41;73.40
72428;BME280;60419;48.880;18.036;2024-01-30T03:38:13;101151.56;;;-0.73;72.11
72428;BME280;60419;48.880;18.036;2024-01-30T03:40:59;101159.13;;;-1.31;73.48
72428;BME280;60419;48.880;18.036;2024-01-30T03:43:44;101153.50;;;-0.90;73.54
72428;BME280;60419;48.880;18.036;2024-01-30T03:46:30;101153.59;;;-0.98;72.29
72428;BME280;60419;48.880;18.036;2024-01-30T03:49:15;101157.91;;;-1.20;72.75
72428;BME280;60419;48.880;18.036;2024-01-30T03:52:00;101152.66;;;-1.05;71.87
72428;BME280;60419;48.880;18.036;2024-01-30T03:54:46;101151.81;;;-1.06;71.81
72428;BME280;60419;48.880;18.036;2024-01-30T03:57:31;101125.88;;;-0.95;71.83
72428;BME280;60419;48.880;18.036;2024-01-30T04:00:17;101158.34;;;-0.70;71.56
72428;BME280;60419;48.880;18.036;2024-01-30T04:03:02;101157.69;;;-0.72;70.73
72428;BME280;60419;48.880;18.036;2024-01-30T04:05:48;101161.84;;;-0.93;71.51
72428;BME280;60419;48.880;18.036;2024-01-30T04:08:33;101151.50;;;-1.03;71.55
72428;BME280;60419;48.880;18.036;2024-01-30T04:11:19;101156.66;;;-0.86;73.15
72428;BME280;60419;48.880;18.036;2024-01-30T04:14:08;101162.56;;;-0.61;72.82
72428;BME280;60419;48.880;18.036;2024-01-30T04:16:53;101155.94;;;-0.80;73.26
72428;BME280;60419;48.880;18.036;2024-01-30T04:19:40;101149.28;;;-1.22;73.98
72428;BME280;60419;48.880;18.036;2024-01-30T04:22:26;101141.09;;;-1.35;74.79
72428;BME280;60419;48.880;18.036;2024-01-30T04:25:14;101146.22;;;-1.11;74.38
72428;BME280;60419;48.880;18.036;2024-01-30T04:28:00;101173.59;;;-1.10;75.26
72428;BME280;60419;48.880;18.036;2024-01-30T04:30:45;101164.31;;;-1.14;74.69
72428;BME280;60419;48.880;18.036;2024-01-30T04:33:30;101162.38;;;-1.20;75.51
72428;BME280;60419;48.880;18.036;2024-01-30T04:36:16;101160.50;;;-0.89;75.50
72428;BME280;60419;48.880;18.036;2024-01-30T04:39:01;101157.75;;;-0.81;75.98
72428;BME280;60419;48.880;18.036;2024-01-30T04:41:47;101166.63;;;-0.88;77.81
72428;BME280;60419;48.880;18.036;2024-01-30T04:44:33;101158.78;;;-0.82;78.92
72428;BME280;60419;48.880;18.036;2024-01-30T04:47:18;101163.19;;;-0.74;80.38
72428;BME280;60419;48.880;18.036;2024-01-30T04:50:08;101169.50;;;-0.37;80.10
72428;BME280;60419;48.880;18.036;2024-01-30T04:52:54;101160.41;;;-0.28;78.31
72428;BME280;60419;48.880;18.036;2024-01-30T04:55:39;101169.47;;;-0.22;77.59
72428;BME280;60419;48.880;18.036;2024-01-30T04:58:24;101169.25;;;-0.65;77.97
72428;BME280;60419;48.880;18.036;2024-01-30T05:01:14;101170.00;;;-0.57;77.65
72428;BME280;60419;48.880;18.036;2024-01-30T05:04:00;101153.19;;;-0.87;78.25
72428;BME280;60419;48.880;18.036;2024-01-30T05:06:46;101156.44;;;-0.62;79.04
72428;BME280;60419;48.880;18.036;2024-01-30T05:09:31;101169.13;;;-0.34;79.66
72428;BME280;60419;48.880;18.036;2024-01-30T05:12:17;101165.16;;;0.06;79.28
72428;BME280;60419;48.880;18.036;2024-01-30T05:15:02;101167.28;;;0.26;78.84
72428;BME280;60419;48.880;18.036;2024-01-30T05:17:48;101177.03;;;0.40;77.77
72428;BME280;60419;48.880;18.036;2024-01-30T05:20:33;101167.75;;;0.51;77.52
72428;BME280;60419;48.880;18.036;2024-01-30T05:23:18;101151.44;;;0.54;76.36
72428;BME280;60419;48.880;18.036;2024-01-30T05:26:04;101168.53;;;0.45;77.34
72428;BME280;60419;48.880;18.036;2024-01-30T05:28:50;101167.97;;;0.49;77.26
72428;BME280;60419;48.880;18.036;2024-01-30T05:31:36;101158.28;;;0.63;77.07
72428;BME280;60419;48.880;18.036;2024-01-30T05:34:21;101176.53;;;0.66;75.61
72428;BME280;60419;48.880;18.036;2024-01-30T05:37:06;101167.72;;;0.29;76.21
72428;BME280;60419;48.880;18.036;2024-01-30T05:39:52;101200.88;;;0.48;77.16
72428;BME280;60419;48.880;18.036;2024-01-30T05:42:38;101172.53;;;0.56;77.60
72428;BME280;60419;48.880;18.036;2024-01-30T05:45:23;101158.00;;;0.73;77.02
72428;BME280;60419;48.880;18.036;2024-01-30T05:48:08;101154.13;;;0.54;77.42
72428;BME280;60419;48.880;18.036;2024-01-30T05:50:54;101162.03;;;0.69;76.83
72428;BME280;60419;48.880;18.036;2024-01-30T05:53:39;101166.66;;;0.60;76.71
72428;BME280;60419;48.880;18.036;2024-01-30T05:56:25;101167.88;;;0.79;76.43
72428;BME280;60419;48.880;18.036;2024-01-30T05:59:10;101162.75;;;0.78;76.74
72428;BME280;60419;48.880;18.036;2024-01-30T06:01:56;101168.84;;;0.93;75.69
72428;BME280;60419;48.880;18.036;2024-01-30T06:04:41;101163.59;;;0.63;76.61
72428;BME280;60419;48.880;18.036;2024-01-30T06:07:26;101092.56;;;0.36;75.99
72428;BME280;60419;48.880;18.036;2024-01-30T06:10:12;101177.50;;;0.80;75.92
72428;BME280;60419;48.880;18.036;2024-01-30T06:12:57;101184.97;;;0.70;76.50
72428;BME280;60419;48.880;18.036;2024-01-30T06:15:42;101178.16;;;1.04;74.90
72428;BME280;60419;48.880;18.036;2024-01-30T06:18:28;101168.00;;;0.92;75.60
72428;BME280;60419;48.880;18.036;2024-01-30T06:21:15;101165.72;;;0.89;75.92
72428;BME280;60419;48.880;18.036;2024-01-30T06:24:01;101163.88;;;0.90;75.58
72428;BME280;60419;48.880;18.036;2024-01-30T06:26:46;101162.53;;;0.79;76.22
72428;BME280;60419;48.880;18.036;2024-01-30T06:29:32;101173.66;;;0.83;75.86
72428;BME280;60419;48.880;18.036;2024-01-30T06:32:17;101175.50;;;1.04;74.88
72428;BME280;60419;48.880;18.036;2024-01-30T06:35:03;101173.56;;;0.97;75.29
72428;BME280;60419;48.880;18.036;2024-01-30T06:37:48;101174.59;;;0.96;75.60
72428;BME280;60419;48.880;18.036;2024-01-30T06:40:34;101170.81;;;1.34;74.08
72428;BME280;60419;48.880;18.036;2024-01-30T06:43:19;101172.44;;;1.07;74.50
72428;BME280;60419;48.880;18.036;2024-01-30T06:46:05;101166.84;;;1.23;74.72
72428;BME280;60419;48.880;18.036;2024-01-30T06:48:50;101166.47;;;1.26;73.79
72428;BME280;60419;48.880;18.036;2024-01-30T06:51:36;101172.88;;;1.10;74.51
72428;BME280;60419;48.880;18.036;2024-01-30T06:54:21;101184.34;;;1.11;74.03
72428;BME280;60419;48.880;18.036;2024-01-30T06:57:06;101174.47;;;0.83;75.07
72428;BME280;60419;48.880;18.036;2024-01-30T06:59:56;101176.44;;;0.96;75.36
72428;BME280;60419;48.880;18.036;2024-01-30T07:02:42;101178.81;;;0.69;76.51
72428;BME280;60419;48.880;18.036;2024-01-30T07:05:27;101180.91;;;0.74;76.36
72428;BME280;60419;48.880;18.036;2024-01-30T07:08:13;101151.84;;;0.72;75.79
72428;BME280;60419;48.880;18.036;2024-01-30T07:10:58;101163.09;;;0.74;76.29
72428;BME280;60419;48.880;18.036;2024-01-30T07:13:43;101176.13;;;0.48;77.65
72428;BME280;60419;48.880;18.036;2024-01-30T07:16:29;101168.13;;;0.63;77.33
72428;BME280;60419;48.880;18.036;2024-01-30T07:19:14;101178.50;;;1.01;76.52
72428;BME280;60419;48.880;18.036;2024-01-30T07:22:00;101148.03;;;0.82;76.04
72428;BME280;60419;48.880;18.036;2024-01-30T07:24:46;101178.31;;;1.24;75.10
72428;BME280;60419;48.880;18.036;2024-01-30T07:27:33;101178.97;;;0.83;75.87
72428;BME280;60419;48.880;18.036;2024-01-30T07:30:19;101182.97;;;1.15;75.46
72428;BME280;60419;48.880;18.036;2024-01-30T07:33:05;101180.31;;;0.57;77.16
72428;BME280;60419;48.880;18.036;2024-01-30T07:35:52;101177.56;;;1.08;76.51
72428;BME280;60419;48.880;18.036;2024-01-30T07:38:37;101182.44;;;1.26;74.78
72428;BME280;60419;48.880;18.036;2024-01-30T07:41:23;101181.44;;;1.27;74.71
72428;BME280;60419;48.880;18.036;2024-01-30T07:44:10;101186.97;;;1.54;73.91
72428;BME280;60419;48.880;18.036;2024-01-30T07:46:55;101176.97;;;1.62;73.35
72428;BME280;60419;48.880;18.036;2024-01-30T07:49:41;101186.50;;;1.50;73.73
72428;BME280;60419;48.880;18.036;2024-01-30T07:52:26;101176.94;;;1.56;73.25
72428;BME280;60419;48.880;18.036;2024-01-30T07:55:11;101173.44;;;1.55;72.89
72428;BME280;60419;48.880;18.036;2024-01-30T07:57:58;101184.34;;;1.11;75.20
72428;BME280;60419;48.880;18.036;2024-01-30T08:00:44;101185.53;;;1.51;73.97
72428;BME280;60419;48.880;18.036;2024-01-30T08:03:29;101190.06;;;1.85;72.99
72428;BME280;60419;48.880;18.036;2024-01-30T08:06:14;101187.16;;;1.52;74.04
72428;BME280;60419;48.880;18.036;2024-01-30T08:09:00;101181.69;;;1.60;73.71
72428;BME280;60419;48.880;18.036;2024-01-30T08:11:45;101177.09;;;2.11;72.28
72428;BME280;60419;48.880;18.036;2024-01-30T08:14:31;101184.25;;;2.10;72.30
72428;BME280;60419;48.880;18.036;2024-01-30T08:17:17;101183.88;;;2.20;71.97
72428;BME280;60419;48.880;18.036;2024-01-30T08:20:02;101187.38;;;2.20;71.33
72428;BME280;60419;48.880;18.036;2024-01-30T08:22:49;101184.56;;;1.94;72.09
72428;BME280;60419;48.880;18.036;2024-01-30T08:25:35;101185.91;;;2.18;71.42
72428;BME280;60419;48.880;18.036;2024-01-30T08:28:21;101184.88;;;2.12;71.64
72428;BME280;60419;48.880;18.036;2024-01-30T08:31:07;101178.25;;;2.43;70.62
72428;BME280;60419;48.880;18.036;2024-01-30T08:33:52;101178.69;;;2.53;70.63
72428;BME280;60419;48.880;18.036;2024-01-30T08:36:37;101169.31;;;2.16;71.15
72428;BME280;60419;48.880;18.036;2024-01-30T08:39:23;101181.78;;;2.09;71.79
72428;BME280;60419;48.880;18.036;2024-01-30T08:42:08;101179.84;;;2.31;71.37
72428;BME280;60419;48.880;18.036;2024-01-30T08:44:53;101188.00;;;2.16;71.86
72428;BME280;60419;48.880;18.036;2024-01-30T08:47:40;101187.72;;;2.04;71.54
72428;BME280;60419;48.880;18.036;2024-01-30T08:50:25;101190.78;;;2.42;71.24
72428;BME280;60419;48.880;18.036;2024-01-30T08:53:11;101190.91;;;2.27;71.68
72428;BME280;60419;48.880;18.036;2024-01-30T08:55:56;101190.03;;;2.20;71.60
72428;BME280;60419;48.880;18.036;2024-01-30T08:58:44;101186.94;;;2.65;70.53
72428;BME280;60419;48.880;18.036;2024-01-30T09:01:29;101180.97;;;2.56;69.96
72428;BME280;60419;48.880;18.036;2024-01-30T09:04:14;101173.09;;;2.41;70.87
72428;BME280;60419;48.880;18.036;2024-01-30T09:07:00;101185.00;;;2.39;70.65
72428;BME280;60419;48.880;18.036;2024-01-30T09:09:45;101184.84;;;2.54;70.08
72428;BME280;60419;48.880;18.036;2024-01-30T09:12:31;101195.41;;;2.27;71.23
72428;BME280;60419;48.880;18.036;2024-01-30T09:15:16;101194.06;;;2.44;71.02
72428;BME280;60419;48.880;18.036;2024-01-30T09:18:01;101193.22;;;2.44;70.49
72428;BME280;60419;48.880;18.036;2024-01-30T09:20:47;101176.44;;;2.50;70.16
72428;BME280;60419;48.880;18.036;2024-01-30T09:23:32;101181.88;;;2.83;69.44
72428;BME280;60419;48.880;18.036;2024-01-30T09:26:18;101175.44;;;2.64;69.98
72428;BME280;60419;48.880;18.036;2024-01-30T09:29:03;101168.69;;;2.68;69.79
72428;BME280;60419;48.880;18.036;2024-01-30T09:31:49;101175.25;;;2.66;69.58
72428;BME280;60419;48.880;18.036;2024-01-30T09:34:34;101153.28;;;2.57;69.82
72428;BME280;60419;48.880;18.036;2024-01-30T09:37:20;101173.22;;;2.75;69.34
72428;BME280;60419;48.880;18.036;2024-01-30T09:40:08;101164.75;;;2.64;69.55
72428;BME280;60419;48.880;18.036;2024-01-30T09:42:53;101170.38;;;2.89;68.75
72428;BME280;60419;48.880;18.036;2024-01-30T09:45:41;101159.72;;;3.03;67.29
72428;BME280;60419;48.880;18.036;2024-01-30T09:48:27;101164.66;;;2.99;68.15
72428;BME280;60419;48.880;18.036;2024-01-30T09:51:16;101167.13;;;3.21;67.71
72428;BME280;60419;48.880;18.036;2024-01-30T09:54:03;101173.25;;;2.94;68.15
72428;BME280;60419;48.880;18.036;2024-01-30T09:56:48;101171.03;;;3.25;67.68
72428;BME280;60419;48.880;18.036;2024-01-30T09:59:33;101159.50;;;3.51;66.28
72428;BME280;60419;48.880;18.036;2024-01-30T10:02:19;101168.34;;;3.58;66.02
72428;BME280;60419;48.880;18.036;2024-01-30T10:05:05;101169.41;;;3.30;66.92
72428;BME280;60419;48.880;18.036;2024-01-30T10:07:54;101159.72;;;3.16;67.15
72428;BME280;60419;48.880;18.036;2024-01-30T10:10:46;101155.63;;;3.27;66.56
72428;BME280;60419;48.880;18.036;2024-01-30T10:13:31;101145.16;;;3.12;66.91
72428;BME280;60419;48.880;18.036;2024-01-30T10:16:17;101142.66;;;3.37;66.71
72428;BME280;60419;48.880;18.036;2024-01-30T10:19:02;101121.28;;;3.04;66.75
72428;BME280;60419;48.880;18.036;2024-01-30T10:21:48;101147.81;;;3.32;66.50
72428;BME280;60419;48.880;18.036;2024-01-30T10:24:34;101142.22;;;2.93;67.28
72428;BME280;60419;48.880;18.036;2024-01-30T10:27:26;101140.19;;;3.42;66.39
72428;BME280;60419;48.880;18.036;2024-01-30T10:30:12;101132.34;;;3.74;65.50
72428;BME280;60419;48.880;18.036;2024-01-30T10:32:57;101134.78;;;3.82;64.85
72428;BME280;60419;48.880;18.036;2024-01-30T10:35:43;101130.94;;;3.65;65.60
72428;BME280;60419;48.880;18.036;2024-01-30T10:38:29;101124.31;;;3.74;65.79
72428;BME280;60419;48.880;18.036;2024-01-30T10:41:17;101118.00;;;3.55;65.54
72428;BME280;60419;48.880;18.036;2024-01-30T10:44:08;101112.84;;;3.67;65.24
72428;BME280;60419;48.880;18.036;2024-01-30T10:47:00;101122.69;;;3.73;65.30
72428;BME280;60419;48.880;18.036;2024-01-30T10:49:48;101107.31;;;3.62;65.23
72428;BME280;60419;48.880;18.036;2024-01-30T10:52:34;101095.56;;;3.56;65.34
72428;BME280;60419;48.880;18.036;2024-01-30T10:55:21;101106.19;;;3.89;65.00
72428;BME280;60419;48.880;18.036;2024-01-30T10:58:07;101097.53;;;3.94;64.82
72428;BME280;60419;48.880;18.036;2024-01-30T11:00:54;101068.50;;;4.04;63.71
72428;BME280;60419;48.880;18.036;2024-01-30T11:03:40;101092.66;;;3.77;64.79
72428;BME280;60419;48.880;18.036;2024-01-30T11:06:26;101082.34;;;3.81;64.70
72428;BME280;60419;48.880;18.036;2024-01-30T11:09:11;101091.03;;;3.63;64.78
72428;BME280;60419;48.880;18.036;2024-01-30T11:11:58;101088.28;;;3.90;64.82
72428;BME280;60419;48.880;18.036;2024-01-30T11:14:47;101089.34;;;3.82;64.47
72428;BME280;60419;48.880;18.036;2024-01-30T11:20:29;101082.44;;;4.13;63.80
72428;BME280;60419;48.880;18.036;2024-01-30T11:23:16;101067.69;;;3.97;63.84
72428;BME280;60419;48.880;18.036;2024-01-30T11:26:03;101061.47;;;4.10;63.83
72428;BME280;60419;48.880;18.036;2024-01-30T11:28:52;101075.41;;;4.18;63.73
72428;BME280;60419;48.880;18.036;2024-01-30T11:31:38;101067.13;;;4.26;62.84
72428;BME280;60419;48.880;18.036;2024-01-30T11:34:24;101064.69;;;4.25;63.09
72428;BME280;60419;48.880;18.036;2024-01-30T11:37:11;101041.41;;;4.32;63.14
72428;BME280;60419;48.880;18.036;2024-01-30T11:39:58;101063.38;;;3.96;63.71
72428;BME280;60419;48.880;18.036;2024-01-30T11:42:44;101053.53;;;4.35;62.72
72428;BME280;60419;48.880;18.036;2024-01-30T11:45:31;101040.38;;;4.26;63.30
72428;BME280;60419;48.880;18.036;2024-01-30T11:48:17;101041.03;;;4.22;62.79
72428;BME280;60419;48.880;18.036;2024-01-30T11:51:02;101038.44;;;4.09;63.40
72428;BME280;60419;48.880;18.036;2024-01-30T11:53:49;101029.88;;;4.63;61.75
72428;BME280;60419;48.880;18.036;2024-01-30T11:56:36;101021.09;;;4.49;61.62
72428;BME280;60419;48.880;18.036;2024-01-30T11:59:22;101033.53;;;4.37;61.96
72428;BME280;60419;48.880;18.036;2024-01-30T12:02:07;101020.97;;;4.38;61.70
72428;BME280;60419;48.880;18.036;2024-01-30T12:04:53;101007.03;;;4.61;61.37
72428;BME280;60419;48.880;18.036;2024-01-30T12:07:38;101020.75;;;4.71;60.54
72428;BME280;60419;48.880;18.036;2024-01-30T12:10:24;101019.03;;;4.52;61.11
72428;BME280;60419;48.880;18.036;2024-01-30T12:13:09;101006.59;;;4.64;60.59
72428;BME280;60419;48.880;18.036;2024-01-30T12:15:55;101005.44;;;4.78;60.54
72428;BME280;60419;48.880;18.036;2024-01-30T12:18:40;101010.13;;;4.58;61.06
72428;BME280;60419;48.880;18.036;2024-01-30T12:21:26;101002.97;;;4.77;60.67
72428;BME280;60419;48.880;18.036;2024-01-30T12:24:12;100993.69;;;4.54;62.04
72428;BME280;60419;48.880;18.036;2024-01-30T12:26:58;100991.31;;;4.39;61.59
72428;BME280;60419;48.880;18.036;2024-01-30T12:29:44;101000.63;;;4.62;60.43
72428;BME280;60419;48.880;18.036;2024-01-30T12:32:29;100990.19;;;4.79;60.34
72428;BME280;60419;48.880;18.036;2024-01-30T12:35:16;100978.22;;;4.56;60.96
72428;BME280;60419;48.880;18.036;2024-01-30T12:38:02;100983.59;;;4.56;61.07
72428;BME280;60419;48.880;18.036;2024-01-30T12:40:47;100979.16;;;4.68;61.15
72428;BME280;60419;48.880;18.036;2024-01-30T12:43:33;100976.31;;;4.63;60.72
72428;BME280;60419;48.880;18.036;2024-01-30T12:46:19;100961.56;;;4.54;60.19
72428;BME280;60419;48.880;18.036;2024-01-30T12:49:04;100951.66;;;4.80;60.17
72428;BME280;60419;48.880;18.036;2024-01-30T12:51:50;100972.56;;;4.71;60.24
72428;BME280;60419;48.880;18.036;2024-01-30T12:54:35;100974.63;;;4.69;59.68
72428;BME280;60419;48.880;18.036;2024-01-30T12:57:20;100964.78;;;4.63;59.53
72428;BME280;60419;48.880;18.036;2024-01-30T13:00:06;100974.88;;;5.11;59.25
72428;BME280;60419;48.880;18.036;2024-01-30T13:02:53;100965.72;;;5.00;58.46
72428;BME280;60419;48.880;18.036;2024-01-30T13:05:38;100962.53;;;4.85;58.03
72428;BME280;60419;48.880;18.036;2024-01-30T13:08:24;100960.19;;;4.70;58.96
72428;BME280;60419;48.880;18.036;2024-01-30T13:11:09;100972.56;;;4.71;58.65
72428;BME280;60419;48.880;18.036;2024-01-30T13:13:54;100953.28;;;4.81;58.11
72428;BME280;60419;48.880;18.036;2024-01-30T13:16:40;100952.56;;;4.74;58.90
72428;BME280;60419;48.880;18.036;2024-01-30T13:19:25;100967.81;;;5.17;56.90
72428;BME280;60419;48.880;18.036;2024-01-30T13:22:11;100937.28;;;5.18;58.15
72428;BME280;60419;48.880;18.036;2024-01-30T13:24:56;100955.22;;;5.17;56.38
72428;BME280;60419;48.880;18.036;2024-01-30T13:27:41;100939.28;;;5.04;56.67
72428;BME280;60419;48.880;18.036;2024-01-30T13:30:27;100962.00;;;5.20;56.31
72428;BME280;60419;48.880;18.036;2024-01-30T13:33:13;100955.53;;;4.84;57.04
72428;BME280;60419;48.880;18.036;2024-01-30T13:36:09;100907.72;;;4.44;57.76
72428;BME280;60419;48.880;18.036;2024-01-30T13:39:18;100892.06;;;4.47;57.40
72428;BME280;60419;48.880;18.036;2024-01-30T13:42:06;100938.69;;;5.02;56.47
72428;BME280;60419;48.880;18.036;2024-01-30T13:48:55;100905.41;;;4.91;56.70
72428;BME280;60419;48.880;18.036;2024-01-30T13:55:17;100959.25;;;5.26;56.33
72428;BME280;60419;48.880;18.036;2024-01-30T14:08:45;100951.34;;;5.50;55.69
72428;BME280;60419;48.880;18.036;2024-01-30T14:11:53;100931.19;;;5.47;55.44
72428;BME280;60419;48.880;18.036;2024-01-30T14:14:39;100951.50;;;5.00;55.80
72428;BME280;60419;48.880;18.036;2024-01-30T14:17:25;100945.56;;;5.16;55.42
72428;BME280;60419;48.880;18.036;2024-01-30T14:20:10;100941.13;;;4.85;55.37
72428;BME280;60419;48.880;18.036;2024-01-30T14:22:56;100933.06;;;5.28;55.35
72428;BME280;60419;48.880;18.036;2024-01-30T14:25:41;100945.31;;;4.99;55.59
72428;BME280;60419;48.880;18.036;2024-01-30T14:28:26;100939.59;;;5.14;55.61
72428;BME280;60419;48.880;18.036;2024-01-30T14:31:12;100938.53;;;4.97;56.00
72428;BME280;60419;48.880;18.036;2024-01-30T14:33:57;100931.91;;;4.99;55.76
72428;BME280;60419;48.880;18.036;2024-01-30T14:36:44;100925.44;;;5.25;55.20
72428;BME280;60419;48.880;18.036;2024-01-30T14:39:29;100925.69;;;5.24;54.54
72428;BME280;60419;48.880;18.036;2024-01-30T14:42:15;100935.34;;;5.25;54.89
72428;BME280;60419;48.880;18.036;2024-01-30T14:45:01;100940.09;;;5.23;54.39